createdAt,value
2022-11-02T00:02:46.921Z,7.13
2022-11-02T00:07:48.331Z,6.85
2022-11-02T00:12:49.917Z,6.07
2022-11-02T00:17:54.012Z,6.13
2022-11-02T00:22:59.307Z,7.07
2022-11-02T00:28:00.666Z,6.93
2022-11-02T00:33:02.316Z,6.15
2022-11-02T00:38:04.435Z,6.80
2022-11-02T00:43:06.184Z,6.65
2022-11-02T00:48:07.776Z,6.18
2022-11-02T00:53:09.295Z,6.60
2022-11-02T00:58:10.656Z,6.50
2022-11-02T01:03:12.015Z,5.82
2022-11-02T01:08:13.380Z,5.95
2022-11-02T01:13:14.798Z,5.80
2022-11-02T01:18:16.247Z,5.50
2022-11-02T01:23:17.626Z,6.07
2022-11-02T01:28:19.054Z,5.82
2022-11-02T01:33:20.415Z,6.25
2022-11-02T01:38:21.773Z,6.07
2022-11-02T01:43:29.798Z,5.63
2022-11-02T01:48:33.443Z,6.10
2022-11-02T01:53:35.216Z,5.95
2022-11-02T01:58:36.604Z,5.53
2022-11-02T02:03:37.964Z,5.43
2022-11-02T02:08:41.623Z,4.82
2022-11-02T02:13:42.986Z,5.55
2022-11-02T02:18:55.601Z,5.60
2022-11-02T02:24:26.464Z,5.35
2022-11-02T02:29:45.891Z,5.35
2022-11-02T02:34:54.014Z,5.47
2022-11-02T02:40:00.964Z,4.50
2022-11-02T02:45:39.671Z,4.53
2022-11-02T02:50:45.004Z,4.75
2022-11-02T02:55:46.778Z,4.57
2022-11-02T03:00:48.258Z,4.70
2022-11-02T03:06:11.059Z,4.53
2022-11-02T03:11:14.072Z,3.95
2022-11-02T03:16:32.443Z,3.60
2022-11-02T03:21:33.635Z,3.58
2022-11-02T03:27:05.209Z,3.47
2022-11-02T03:32:19.201Z,3.30
2022-11-02T03:37:23.536Z,3.85
2022-11-02T03:42:26.510Z,3.70
2022-11-02T03:47:30.932Z,3.33
2022-11-02T03:52:34.819Z,3.28
2022-11-02T03:57:42.879Z,3.20
2022-11-02T04:02:46.164Z,2.97
2022-11-02T04:08:08.331Z,3.17
2022-11-02T04:13:28.603Z,3.47
2022-11-02T04:18:48.235Z,3.08
2022-11-02T04:24:08.050Z,2.83
2022-11-02T04:29:09.618Z,2.95
2022-11-02T04:34:10.979Z,2.90
2022-11-02T04:39:12.334Z,3.10
2022-11-02T04:44:14.399Z,2.53
2022-11-02T04:49:17.102Z,2.78
2022-11-02T04:54:18.486Z,2.20
2022-11-02T04:59:19.847Z,2.60
2022-11-02T05:04:21.431Z,2.15
2022-11-02T05:09:22.794Z,2.10
2022-11-02T05:14:24.202Z,2.60
2022-11-02T05:19:25.593Z,1.85
2022-11-02T05:24:26.958Z,2.17
2022-11-02T05:29:28.314Z,2.35
2022-11-02T05:34:29.675Z,2.65
2022-11-02T05:39:31.261Z,2.47
2022-11-02T05:44:32.658Z,2.13
2022-11-02T05:49:34.436Z,1.80
2022-11-02T05:54:35.795Z,2.13
2022-11-02T05:59:37.157Z,2.22
2022-11-02T06:04:38.520Z,2.22
2022-11-02T06:09:39.884Z,1.85
2022-11-02T06:14:41.252Z,2.00
2022-11-02T06:19:42.619Z,2.15
2022-11-02T06:24:43.974Z,1.90
2022-11-02T06:29:45.335Z,2.00
2022-11-02T06:34:46.695Z,2.38
2022-11-02T06:39:48.130Z,2.45
2022-11-02T06:44:49.505Z,2.05
2022-11-02T06:49:51.852Z,2.03
2022-11-02T06:54:53.033Z,2.20
2022-11-02T06:59:54.448Z,1.55
2022-11-02T07:04:55.991Z,2.20
2022-11-02T07:09:57.355Z,2.08
2022-11-02T07:14:58.725Z,2.05
2022-11-02T07:20:00.105Z,2.00
2022-11-02T07:25:01.468Z,1.92
2022-11-02T07:30:03.251Z,1.60
2022-11-02T07:35:04.939Z,1.95
2022-11-02T07:40:07.216Z,1.80
2022-11-02T07:45:08.835Z,1.85
2022-11-02T07:50:12.527Z,1.80
2022-11-02T07:55:18.536Z,2.00
2022-11-02T08:00:19.948Z,1.88
2022-11-02T08:05:21.317Z,1.70
2022-11-02T08:10:22.674Z,2.25
2022-11-02T08:15:24.494Z,1.83
2022-11-02T08:20:25.906Z,1.65
2022-11-02T08:25:27.288Z,1.75
2022-11-02T08:30:29.143Z,1.88
2022-11-02T08:35:30.507Z,1.98
2022-11-02T08:40:32.010Z,1.80
2022-11-02T08:46:00.516Z,1.55
2022-11-02T08:50:56.097Z,1.33
2022-11-02T08:55:58.527Z,1.63
2022-11-02T09:00:59.896Z,1.33
2022-11-02T09:06:02.083Z,1.38
2022-11-02T09:11:04.131Z,1.17
2022-11-02T09:16:05.804Z,1.45
2022-11-02T09:21:07.210Z,1.60
2022-11-02T09:26:08.602Z,1.33
2022-11-02T09:31:11.624Z,1.20
2022-11-02T09:36:13.367Z,1.35
2022-11-02T09:41:23.640Z,1.60
2022-11-02T09:46:27.089Z,1.10
2022-11-02T09:51:40.119Z,1.10
2022-11-02T09:56:41.670Z,1.02
2022-11-02T10:02:12.744Z,1.30
2022-11-02T10:07:21.686Z,1.02
2022-11-02T10:12:37.316Z,1.10
2022-11-02T10:17:39.063Z,1.08
2022-11-02T10:22:41.022Z,1.13
2022-11-02T10:27:43.734Z,1.23
2022-11-02T10:32:46.061Z,1.05
2022-11-02T10:38:11.959Z,1.30
2022-11-02T10:43:28.632Z,1.23
2022-11-02T10:49:01.121Z,1.20
2022-11-02T10:54:02.711Z,1.20
2022-11-02T10:59:24.344Z,0.90
2022-11-02T11:04:27.028Z,1.02
2022-11-02T11:09:30.536Z,1.20
2022-11-02T11:20:33.668Z,1.10
2022-11-02T11:25:35.077Z,1.10
2022-11-02T11:30:58.935Z,1.17
2022-11-02T11:35:58.795Z,0.90
2022-11-02T11:41:00.220Z,1.02
2022-11-02T11:46:06.374Z,1.00
2022-11-02T11:51:31.255Z,1.10
2022-11-02T11:56:32.904Z,1.00
2022-11-02T12:01:40.889Z,0.85
2022-11-02T12:06:50.857Z,1.10
2022-11-02T12:12:11.086Z,1.00
2022-11-02T12:17:15.299Z,1.20
2022-11-02T12:22:38.169Z,1.02
2022-11-02T12:28:19.242Z,0.88
2022-11-02T12:33:34.733Z,1.00
2022-11-02T12:38:59.879Z,1.05
2022-11-02T12:44:09.256Z,1.02
2022-11-02T12:49:22.641Z,0.88
2022-11-02T12:54:27.263Z,1.00
2022-11-02T12:59:30.499Z,0.80
2022-11-02T13:04:36.982Z,0.93
2022-11-02T13:09:51.753Z,0.85
2022-11-02T13:14:54.553Z,1.10
2022-11-02T13:19:57.947Z,1.00
2022-11-02T13:25:26.604Z,1.00
2022-11-02T13:30:28.558Z,0.80
2022-11-02T13:35:33.062Z,1.08
2022-11-02T13:41:03.844Z,0.80
2022-11-02T13:46:23.531Z,1.00
2022-11-02T13:51:32.506Z,0.80
2022-11-02T13:56:35.259Z,0.70
2022-11-02T14:01:39.096Z,0.93
2022-11-02T14:06:51.451Z,0.93
2022-11-02T14:11:52.816Z,1.00
2022-11-02T14:16:54.059Z,1.15
2022-11-02T14:21:58.681Z,0.80
2022-11-02T14:27:01.051Z,0.90
2022-11-02T14:32:10.735Z,0.90
2022-11-02T14:37:44.347Z,0.95
2022-11-02T14:43:24.158Z,0.73
2022-11-02T14:48:25.522Z,1.05
2022-11-02T14:53:27.698Z,1.17
2022-11-02T14:58:39.995Z,1.20
2022-11-02T15:03:41.855Z,0.90
2022-11-02T15:08:43.055Z,0.77
2022-11-02T15:13:48.029Z,1.08
2022-11-02T15:18:49.395Z,1.40
2022-11-02T15:23:52.871Z,0.93
2022-11-02T15:28:55.611Z,1.30
2022-11-02T15:33:58.792Z,0.80
2022-11-02T15:39:04.951Z,0.93
2022-11-02T15:44:13.343Z,0.60
2022-11-02T15:49:27.380Z,0.90
2022-11-02T15:54:53.559Z,0.90
2022-11-02T16:00:04.070Z,0.75
2022-11-02T16:05:08.220Z,0.80
2022-11-02T16:10:21.064Z,0.82
2022-11-02T16:15:22.567Z,1.10
2022-11-02T16:20:28.342Z,1.15
2022-11-02T16:25:51.878Z,0.95
2022-11-02T16:31:17.920Z,1.02
2022-11-02T16:36:24.391Z,1.00
2022-11-02T16:41:29.914Z,1.10
2022-11-02T16:46:40.966Z,1.45
2022-11-02T16:51:56.634Z,1.40
2022-11-02T16:57:07.134Z,1.15
2022-11-02T17:02:12.130Z,1.10
2022-11-02T17:07:20.800Z,1.30
2022-11-02T17:12:33.692Z,1.23
2022-11-02T17:17:37.311Z,1.30
2022-11-02T17:22:48.101Z,1.42
2022-11-02T17:27:50.416Z,1.30
2022-11-02T17:32:51.786Z,1.45
2022-11-02T17:37:55.719Z,1.23
2022-11-02T17:42:59.644Z,1.30
2022-11-02T17:48:01.496Z,1.13
2022-11-02T17:53:02.907Z,1.40
2022-11-02T17:58:05.715Z,1.88
2022-11-02T18:03:13.620Z,1.40
2022-11-02T18:08:14.984Z,1.27
2022-11-02T18:13:20.318Z,1.50
2022-11-02T18:18:21.723Z,1.20
2022-11-02T18:23:23.087Z,1.45
2022-11-02T18:28:24.447Z,1.45
2022-11-02T18:33:25.804Z,1.60
2022-11-02T18:38:27.203Z,1.70
2022-11-02T18:43:28.569Z,1.80
2022-11-02T18:48:29.932Z,1.80
2022-11-02T18:53:31.299Z,1.48
2022-11-02T18:58:32.671Z,1.63
2022-11-02T19:03:34.386Z,2.20
2022-11-02T19:08:54.120Z,1.85
2022-11-02T19:13:55.480Z,1.80
2022-11-02T19:18:56.843Z,1.98
2022-11-02T19:23:58.199Z,1.38
2022-11-02T19:29:03.061Z,1.60
2022-11-02T19:34:07.571Z,1.35
2022-11-02T19:39:09.023Z,1.50
2022-11-02T19:44:10.409Z,1.88
2022-11-02T19:49:11.769Z,1.30
2022-11-02T19:54:13.146Z,1.60
2022-11-02T19:59:14.508Z,1.42
2022-11-02T20:04:15.877Z,1.35
2022-11-02T20:09:18.536Z,1.40
2022-11-02T20:14:19.971Z,1.65
2022-11-02T20:19:21.332Z,1.70
2022-11-02T20:24:22.812Z,1.90
2022-11-02T20:29:24.170Z,1.70
2022-11-02T20:34:25.526Z,1.63
2022-11-02T20:39:26.892Z,1.73
2022-11-02T20:44:28.251Z,1.60
2022-11-02T20:49:49.516Z,1.83
2022-11-02T20:54:50.968Z,2.00
2022-11-02T20:59:52.331Z,1.88
2022-11-02T21:04:53.695Z,2.00
2022-11-02T21:09:55.099Z,1.90
2022-11-02T21:14:56.697Z,2.08
2022-11-02T21:20:14.127Z,2.38
2022-11-02T21:25:19.539Z,2.50
2022-11-02T21:30:20.904Z,2.50
2022-11-02T21:35:22.278Z,2.42
2022-11-02T21:40:23.465Z,2.28
2022-11-02T21:45:26.366Z,2.38
2022-11-02T21:50:27.873Z,2.30
2022-11-02T21:55:29.231Z,2.58
2022-11-02T22:00:50.603Z,2.75
2022-11-02T22:05:59.198Z,2.60
2022-11-02T22:11:00.565Z,2.60
2022-11-02T22:16:14.836Z,2.38
2022-11-02T22:21:17.004Z,2.58
2022-11-02T22:26:22.308Z,2.53
2022-11-02T22:31:25.372Z,2.67
2022-11-02T22:36:28.006Z,2.92
2022-11-02T22:41:39.667Z,2.75
2022-11-02T22:46:42.783Z,2.30
2022-11-02T22:51:48.418Z,2.88
2022-11-02T22:56:49.795Z,2.88
2022-11-02T23:01:51.441Z,2.90
2022-11-02T23:06:52.935Z,2.60
2022-11-02T23:11:54.316Z,2.70
2022-11-02T23:16:55.782Z,2.75
2022-11-02T23:22:26.284Z,2.30
2022-11-02T23:27:27.826Z,2.40
2022-11-02T23:32:29.251Z,2.45
2022-11-02T23:37:30.618Z,2.30
2022-11-02T23:42:32.046Z,2.30
2022-11-02T23:47:51.817Z,2.28
2022-11-02T23:53:11.381Z,2.28
2022-11-02T23:58:12.742Z,2.50
